Time;durP1;ratioP1;P1;durP2;ratioP2;P2;SDS_P1;SDS_P2;PMS_P1;PMS_P2;Temp;Humidity;BMP_temperature;BMP_pressure;BME280_temperature;BME280_humidity;BME280_pressure;Samples;Min_cycle;Max_cycle;Signal;HPM_P1;HPM_P2
2023/12/05 09:55:03;;;;;;;37.00;26.90;;;;;;;-2.77;70.83;101230.09;103090;1282;606329;-71
2023/12/05 09:57:30;;;;;;;38.20;26.60;;;;;;;-1.83;68.62;101234.98;104885;1270;98546;-71
2023/12/05 09:59:57;;;;;;;58.80;40.60;;;;;;;-1.84;68.40;101233.95;104913;1271;59105;-71
2023/12/05 10:02:24;;;;;;;42.70;28.90;;;;;;;-1.86;68.10;101223.63;104873;1268;65223;-71
2023/12/05 10:04:58;;;;;;;46.30;30.10;;;;;;;-1.85;68.05;101218.44;104877;1267;60897;-71
2023/12/05 10:07:26;;;;;;;36.70;25.40;;;;;;;-1.84;67.83;101215.66;104940;1267;64049;-72
2023/12/05 10:09:53;;;;;;;35.60;24.00;;;;;;;-1.82;67.74;101216.52;105300;1267;59224;-70
2023/12/05 10:12:20;;;;;;;37.20;24.90;;;;;;;-1.81;67.71;101210.96;105202;1266;59323;-71
2023/12/05 10:14:47;;;;;;;33.90;22.80;;;;;;;-1.79;67.59;101209.38;105012;1264;63535;-70
2023/12/05 10:17:14;;;;;;;47.00;31.00;;;;;;;-1.80;67.35;101211.46;105277;1263;59253;-71
2023/12/05 10:19:42;;;;;;;52.20;34.70;;;;;;;-1.83;67.26;101215.48;104604;1269;64042;-69
2023/12/05 10:22:09;;;;;;;52.80;34.30;;;;;;;-1.82;67.28;101214.77;105192;1264;59667;-71
2023/12/05 10:24:42;;;;;;;51.40;33.70;;;;;;;-1.78;67.23;101208.67;104924;1263;59749;-73
2023/12/05 10:27:09;;;;;;;45.80;28.90;;;;;;;-1.74;67.13;101209.64;105098;1264;66259;-72
2023/12/05 10:29:37;;;;;;;44.30;28.70;;;;;;;-1.70;67.09;101213.90;105274;1266;60271;-71
2023/12/05 10:32:03;;;;;;;54.30;33.20;;;;;;;-1.66;67.01;101211.23;105357;1267;64597;-72
2023/12/05 10:34:30;;;;;;;52.70;31.40;;;;;;;-1.61;67.02;101211.34;105146;1264;59651;-74
2023/12/05 10:37:03;;;;;;;53.20;33.90;;;;;;;-1.57;66.92;101216.63;105042;1263;59675;-71
2023/12/05 10:39:37;;;;;;;42.10;28.70;;;;;;;-1.57;66.78;101219.05;104877;1270;64380;-71
2023/12/05 10:42:04;;;;;;;50.20;29.60;;;;;;;-1.58;66.68;101220.61;104882;1263;60127;-70
2023/12/05 10:44:40;;;;;;;39.90;26.20;;;;;;;-1.57;66.64;101224.40;104631;1263;65019;-72
2023/12/05 10:47:08;;;;;;;40.70;24.40;;;;;;;-1.57;66.62;101225.95;104836;1264;59800;-71
2023/12/05 10:49:35;;;;;;;36.10;23.40;;;;;;;-1.57;66.54;101225.26;105022;1264;60104;-71
2023/12/05 10:52:03;;;;;;;37.50;24.20;;;;;;;-1.56;66.66;101222.64;105061;1267;64212;-72
2023/12/05 10:54:30;;;;;;;42.20;27.00;;;;;;;-1.54;66.53;101218.66;104939;1264;60334;-70
2023/12/05 10:56:58;;;;;;;40.90;26.90;;;;;;;-1.54;66.53;101218.48;104941;1264;64043;-73
2023/12/05 10:59:26;;;;;;;35.80;24.40;;;;;;;-1.51;66.60;101216.88;104991;1263;59769;-71
2023/12/05 11:01:56;;;;;;;38.00;25.60;;;;;;;-1.45;66.63;101209.18;105200;1269;59574;-71
2023/12/05 11:04:24;;;;;;;54.30;31.40;;;;;;;-1.38;66.67;101207.16;105188;1268;64516;-71
2023/12/05 11:06:54;;;;;;;43.90;26.60;;;;;;;-1.32;66.67;101202.56;104967;1269;66367;-71
2023/12/05 11:09:22;;;;;;;38.60;24.80;;;;;;;-1.28;66.48;101207.32;104919;1267;64640;-71
2023/12/05 11:11:50;;;;;;;33.70;23.60;;;;;;;-1.22;66.47;101205.85;104909;1264;59674;-72
2023/12/05 11:14:19;;;;;;;37.00;23.90;;;;;;;-1.17;66.43;101211.61;105198;1264;59708;-74
2023/12/05 11:16:49;;;;;;;38.40;25.60;;;;;;;-1.13;66.39;101212.27;105056;1264;64317;-71
2023/12/05 11:19:27;;;;;;;32.40;22.70;;;;;;;-1.09;66.41;101210.27;104967;1264;60350;-71
2023/12/05 11:22:19;;;;;;;41.40;27.20;;;;;;;-1.04;66.28;101203.28;104914;1269;64447;-70
2023/12/05 11:25:41;;;;;;;38.60;26.20;;;;;;;-1.03;66.13;101196.70;104893;1269;59769;-71
2023/12/05 11:28:22;;;;;;;39.10;24.90;;;;;;;-0.98;66.15;101198.85;104547;1270;59822;-71
2023/12/05 11:30:58;;;;;;;40.50;26.70;;;;;;;-0.94;66.05;101199.46;104820;1269;66250;-70
2023/12/05 11:34:04;;;;;;;42.90;28.30;;;;;;;-0.91;65.94;101203.71;104947;1266;59548;-71
2023/12/05 11:36:36;;;;;;;52.90;32.00;;;;;;;-0.91;65.70;101204.24;105144;1265;65753;-70
2023/12/05 11:39:03;;;;;;;56.00;32.90;;;;;;;-0.95;65.71;101201.39;105073;1269;59717;-71
2023/12/05 11:41:31;;;;;;;85.90;45.20;;;;;;;-0.96;65.82;101200.36;105056;1264;59695;-71
2023/12/05 11:44:17;;;;;;;52.60;33.10;;;;;;;-0.94;65.84;101203.27;105227;1263;66342;-71
2023/12/05 11:46:44;;;;;;;45.00;29.60;;;;;;;-0.90;65.84;101200.41;105014;1264;59873;-72
2023/12/05 11:49:11;;;;;;;37.10;24.40;;;;;;;-0.86;65.85;101195.14;105170;1260;63858;-72
2023/12/05 11:51:38;;;;;;;35.80;25.00;;;;;;;-0.82;65.78;101190.08;105164;1260;60764;-71
2023/12/05 11:54:05;;;;;;;34.10;22.90;;;;;;;-0.79;65.64;101182.04;105247;1260;60438;-72
2023/12/05 11:56:32;;;;;;;31.90;21.80;;;;;;;-0.76;65.48;101183.21;105305;1261;64440;-72
2023/12/05 11:59:12;;;;;;;31.00;21.80;;;;;;;-0.76;65.29;101183.38;105066;1265;59650;-72
2023/12/05 12:01:38;;;;;;;32.50;22.40;;;;;;;-0.75;65.20;101186.14;105311;1260;65925;-72
2023/12/05 12:04:20;;;;;;;32.60;22.90;;;;;;;-0.74;65.14;101176.43;105303;1265;59617;-71
2023/12/05 12:06:48;;;;;;;37.00;24.00;;;;;;;-0.73;65.15;101172.08;105002;1267;59576;-73
2023/12/05 12:09:15;;;;;;;35.90;24.30;;;;;;;-0.70;65.14;101164.40;105237;1261;64468;-72
2023/12/05 12:11:42;;;;;;;40.50;26.10;;;;;;;-0.66;65.03;101161.04;105315;1260;59694;-73
2023/12/05 12:14:16;;;;;;;36.60;24.50;;;;;;;-0.60;65.01;101159.86;105392;1260;64060;-71
2023/12/05 12:16:44;;;;;;;38.00;26.10;;;;;;;-0.53;64.83;101155.75;105176;1261;59721;-71
2023/12/05 12:19:12;;;;;;;39.50;27.00;;;;;;;-0.48;64.63;101146.64;105308;1260;60429;-72
2023/12/05 12:21:39;;;;;;;43.60;28.70;;;;;;;-0.44;64.51;101147.42;105296;1265;66060;-71
2023/12/05 12:24:07;;;;;;;41.70;29.30;;;;;;;-0.40;64.32;101144.91;105495;1257;60114;-71
2023/12/05 12:26:34;;;;;;;48.20;33.20;;;;;;;-0.36;64.21;101146.20;105473;1263;64717;-71
2023/12/05 12:29:08;;;;;;;64.10;42.10;;;;;;;-0.33;64.07;101143.18;105335;1256;60408;-71
2023/12/05 12:31:38;;;;;;;64.60;41.10;;;;;;;-0.31;63.89;101140.54;105382;1257;59618;-72
2023/12/05 12:34:07;;;;;;;68.40;42.80;;;;;;;-0.32;63.80;101141.41;105482;1259;64157;-71
2023/12/05 12:36:34;;;;;;;64.40;39.60;;;;;;;-0.31;63.80;101138.65;105530;1257;59765;-71
2023/12/05 12:39:01;;;;;;;67.20;40.80;;;;;;;-0.31;63.77;101136.39;105448;1257;64933;-72
2023/12/05 12:41:28;;;;;;;68.60;40.00;;;;;;;-0.32;63.73;101131.22;105572;1257;59791;-71
2023/12/05 12:43:55;;;;;;;64.50;38.10;;;;;;;-0.31;63.77;101135.70;105449;1257;59840;-73
2023/12/05 12:46:22;;;;;;;63.10;35.80;;;;;;;-0.31;63.72;101141.76;105518;1260;64388;-71
2023/12/05 12:48:49;;;;;;;56.50;32.70;;;;;;;-0.30;63.62;101150.73;105539;1257;59759;-70
2023/12/05 12:51:16;;;;;;;48.30;28.70;;;;;;;-0.32;63.52;101153.55;105531;1257;64047;-72
2023/12/05 12:53:43;;;;;;;43.70;27.60;;;;;;;-0.38;63.37;101156.29;105287;1256;59648;-69
2023/12/05 12:56:10;;;;;;;43.80;26.40;;;;;;;-0.45;63.37;101155.06;105466;1257;59622;-70
2023/12/05 12:58:42;;;;;;;39.30;26.30;;;;;;;-0.50;63.34;101154.80;105339;1257;65095;-71
2023/12/05 13:01:13;;;;;;;42.90;26.30;;;;;;;-0.49;63.48;101152.54;105517;1257;65700;-71
2023/12/05 13:03:44;;;;;;;40.20;26.50;;;;;;;-0.48;63.44;101149.06;105281;1257;64142;-73
2023/12/05 13:06:12;;;;;;;42.00;26.40;;;;;;;-0.47;63.46;101149.06;105317;1259;59573;-71
2023/12/05 13:08:39;;;;;;;40.20;25.50;;;;;;;-0.47;63.43;101151.99;105519;1259;59689;-72
2023/12/05 13:11:07;;;;;;;43.00;25.80;;;;;;;-0.49;63.41;101156.34;105397;1257;64798;-76
2023/12/05 13:13:34;;;;;;;41.10;24.80;;;;;;;-0.51;63.36;101154.48;105395;1258;59726;-71
2023/12/05 13:16:02;;;;;;;40.50;27.30;;;;;;;-0.52;63.39;101152.63;105288;1256;65834;-71
2023/12/05 13:18:45;;;;;;;42.90;27.70;;;;;;;-0.55;63.45;101152.52;105281;1262;59707;-71
2023/12/05 13:21:13;;;;;;;46.10;26.60;;;;;;;-0.56;63.49;101151.32;105368;1257;59614;-72
2023/12/05 13:23:43;;;;;;;47.30;28.70;;;;;;;-0.56;63.68;101153.23;105479;1257;65215;-70
2023/12/05 13:26:10;;;;;;;45.40;28.20;;;;;;;-0.55;63.70;101154.42;105497;1257;60568;-70
2023/12/05 13:28:37;;;;;;;43.80;26.80;;;;;;;-0.55;63.71;101152.17;105522;1256;62829;-72
2023/12/05 13:31:04;;;;;;;41.30;26.20;;;;;;;-0.57;63.68;101152.72;105388;1260;59625;-72
2023/12/05 13:33:31;;;;;;;42.10;26.90;;;;;;;-0.60;63.69;101147.91;105501;1256;59648;-73
2023/12/05 13:35:58;;;;;;;43.60;26.50;;;;;;;-0.62;63.75;101146.75;105440;1257;66055;-70
2023/12/05 13:38:25;;;;;;;39.60;25.60;;;;;;;-0.63;63.77;101150.23;105366;1257;59861;-72
2023/12/05 13:40:52;;;;;;;49.20;26.50;;;;;;;-0.63;63.87;101152.32;105378;1262;65613;-74
2023/12/05 13:43:19;;;;;;;44.40;26.20;;;;;;;-0.64;63.85;101152.70;105405;1260;59758;-72
2023/12/05 13:45:46;;;;;;;44.40;27.10;;;;;;;-0.68;63.76;101146.54;105420;1257;59635;-74
2023/12/05 13:48:13;;;;;;;45.10;27.00;;;;;;;-0.72;63.85;101142.13;105385;1261;64148;-72
2023/12/05 13:50:41;;;;;;;49.40;27.10;;;;;;;-0.75;63.84;101135.97;105474;1257;59775;-72
2023/12/05 13:53:08;;;;;;;40.80;25.60;;;;;;;-0.76;63.97;101133.92;105407;1256;65044;-74
2023/12/05 13:55:35;;;;;;;39.60;24.60;;;;;;;-0.77;64.00;101134.29;105538;1256;59676;-73
2023/12/05 13:58:02;;;;;;;39.00;24.10;;;;;;;-0.78;64.00;101138.79;105550;1256;59858;-73
2023/12/05 14:00:30;;;;;;;44.90;28.20;;;;;;;-0.80;64.07;101148.17;105335;1258;65922;-72
2023/12/05 14:02:57;;;;;;;63.80;40.40;;;;;;;-0.83;64.09;101147.89;105588;1255;59561;-71
2023/12/05 14:05:24;;;;;;;111.70;77.10;;;;;;;-0.85;64.09;101146.38;105401;1256;66054;-73
2023/12/05 14:07:51;;;;;;;53.20;35.80;;;;;;;-0.88;64.15;101143.14;105506;1259;60498;-73
2023/12/05 14:10:19;;;;;;;49.10;29.80;;;;;;;-0.90;64.20;101143.00;105526;1257;60450;-74
2023/12/05 14:12:46;;;;;;;44.40;27.90;;;;;;;-0.91;64.29;101144.41;105370;1261;67048;-73
2023/12/05 14:15:13;;;;;;;40.30;26.30;;;;;;;-0.93;64.35;101141.36;105496;1259;60203;-72
2023/12/05 14:17:40;;;;;;;38.40;25.40;;;;;;;-0.95;64.41;101139.67;105523;1260;64540;-74
2023/12/05 14:20:10;;;;;;;40.10;25.20;;;;;;;-0.97;64.47;101142.79;105280;1262;60374;-74
2023/12/05 14:22:38;;;;;;;35.60;24.60;;;;;;;-0.97;64.46;101149.02;105537;1257;60353;-77
2023/12/05 14:25:07;;;;;;;44.30;26.30;;;;;;;-0.98;64.45;101153.20;105427;1258;65231;-73
2023/12/05 14:27:35;;;;;;;44.50;24.70;;;;;;;-1.02;64.42;101151.05;105548;1261;60478;-75
2023/12/05 14:30:04;;;;;;;39.40;25.10;;;;;;;-1.05;64.55;101148.16;105573;1256;64882;-74
2023/12/05 14:32:32;;;;;;;44.60;27.50;;;;;;;-1.05;64.69;101145.58;105763;1258;60560;-72
2023/12/05 14:35:00;;;;;;;47.60;28.00;;;;;;;-1.04;64.68;101149.70;105628;1257;60399;-76
2023/12/05 14:37:27;;;;;;;49.60;28.70;;;;;;;-1.04;64.70;101149.52;105748;1259;66831;-77
2023/12/05 14:39:53;;;;;;;46.70;28.60;;;;;;;-1.03;64.75;101146.04;105536;1256;60443;-75
2023/12/05 14:42:23;;;;;;;52.20;30.00;;;;;;;-1.03;64.66;101145.70;105684;1256;65848;-74
2023/12/05 14:44:51;;;;;;;45.80;29.80;;;;;;;-1.03;64.80;101152.27;105496;1257;63218;-75
2023/12/05 14:47:18;;;;;;;49.10;30.90;;;;;;;-1.05;64.79;101149.02;105492;1256;61023;-74
2023/12/05 14:49:45;;;;;;;50.00;31.70;;;;;;;-1.05;64.85;101150.59;105500;1257;65933;-75
2023/12/05 14:52:12;;;;;;;53.00;31.10;;;;;;;-1.07;64.87;101145.93;105552;1257;60595;-76
2023/12/05 14:54:40;;;;;;;55.10;34.60;;;;;;;-1.07;64.89;101140.93;105514;1257;65590;-77
2023/12/05 14:57:08;;;;;;;57.30;34.60;;;;;;;-1.07;64.97;101135.05;105368;1257;60600;-75
2023/12/05 14:59:34;;;;;;;58.90;36.10;;;;;;;-1.07;65.01;101128.31;105644;1259;60454;-74
2023/12/05 15:02:01;;;;;;;67.40;37.70;;;;;;;-1.06;65.11;101125.55;105623;1257;63782;-73
2023/12/05 15:04:30;;;;;;;69.80;37.00;;;;;;;-1.05;65.15;101119.98;105608;1259;60480;-75
2023/12/05 15:06:58;;;;;;;58.70;33.40;;;;;;;-1.04;65.23;101123.27;105556;1257;64051;-74
2023/12/05 15:09:26;;;;;;;54.10;32.50;;;;;;;-1.05;65.28;101116.71;105585;1257;60557;-73
2023/12/05 15:11:53;;;;;;;54.00;31.90;;;;;;;-1.06;65.42;101114.13;105612;1255;60895;-75
2023/12/05 15:14:21;;;;;;;47.60;29.00;;;;;;;-1.06;65.50;101115.16;105591;1259;75278;-74
2023/12/05 15:16:48;;;;;;;50.30;30.30;;;;;;;-1.06;65.54;101118.61;105595;1259;60356;-74
2023/12/05 15:19:15;;;;;;;45.00;27.30;;;;;;;-1.07;65.64;101124.67;105536;1256;65662;-74
2023/12/05 15:21:43;;;;;;;50.20;29.50;;;;;;;-1.08;65.73;101127.64;105651;1256;60565;-74
2023/12/05 15:24:11;;;;;;;50.70;30.40;;;;;;;-1.10;65.73;101131.31;105645;1259;60416;-75
2023/12/05 15:26:38;;;;;;;47.40;28.20;;;;;;;-1.11;65.85;101133.92;105616;1257;64982;-76
2023/12/05 15:29:06;;;;;;;45.20;27.30;;;;;;;-1.13;65.87;101129.83;105494;1257;60464;-74
2023/12/05 15:31:34;;;;;;;42.00;27.50;;;;;;;-1.14;65.92;101130.02;105510;1257;65679;-74
2023/12/05 15:34:01;;;;;;;49.80;28.00;;;;;;;-1.14;66.02;101128.11;105678;1256;60411;-73
2023/12/05 15:36:28;;;;;;;44.10;27.70;;;;;;;-1.13;66.03;101127.23;105524;1256;60486;-74
2023/12/05 15:38:56;;;;;;;49.50;29.90;;;;;;;-1.13;66.14;101125.85;105556;1256;65061;-76
2023/12/05 15:41:25;;;;;;;46.90;28.30;;;;;;;-1.12;66.20;101123.41;105567;1257;60498;-75
2023/12/05 15:43:52;;;;;;;42.70;27.50;;;;;;;-1.12;66.23;101122.39;105754;1257;65986;-78
2023/12/05 15:46:22;;;;;;;42.00;26.70;;;;;;;-1.13;66.23;101122.91;105521;1256;60445;-75
2023/12/05 15:48:50;;;;;;;41.10;24.60;;;;;;;-1.11;66.33;101123.90;105590;1255;60639;-74
2023/12/05 15:51:17;;;;;;;40.80;25.00;;;;;;;-1.11;66.42;101118.72;105540;1260;67289;-74
2023/12/05 15:53:44;;;;;;;41.70;25.20;;;;;;;-1.10;66.37;101118.52;105549;1256;60567;-76
2023/12/05 15:56:12;;;;;;;42.10;26.50;;;;;;;-1.09;66.44;101115.22;105585;1256;64815;-75
2023/12/05 15:58:41;;;;;;;43.10;25.80;;;;;;;-1.08;66.57;101109.48;105595;1262;60565;-75
2023/12/05 16:01:10;;;;;;;43.20;25.60;;;;;;;-1.07;66.64;101107.55;105632;1257;60536;-75
2023/12/05 16:03:37;;;;;;;41.00;26.40;;;;;;;-1.06;66.60;101099.44;105329;1262;64997;-74
2023/12/05 16:06:06;;;;;;;40.10;26.00;;;;;;;-1.06;66.68;101089.23;105593;1259;60458;-76
2023/12/05 16:08:34;;;;;;;38.30;24.10;;;;;;;-1.04;66.57;101082.64;105611;1259;65139;-75
2023/12/05 16:11:01;;;;;;;38.80;24.60;;;;;;;-1.03;66.68;101075.36;105642;1256;60433;-75
2023/12/05 16:13:28;;;;;;;38.60;23.80;;;;;;;-1.03;66.72;101078.63;105613;1256;60365;-75
2023/12/05 16:15:55;;;;;;;36.50;23.50;;;;;;;-1.02;66.72;101081.04;105563;1257;64010;-74
2023/12/05 16:18:22;;;;;;;36.20;23.50;;;;;;;-1.03;66.77;101086.23;105619;1256;60569;-75
2023/12/05 16:20:50;;;;;;;35.00;23.10;;;;;;;-1.05;66.77;101083.70;105739;1256;63486;-74
2023/12/05 16:23:17;;;;;;;36.70;23.10;;;;;;;-1.06;66.75;101081.45;105678;1256;60483;-76
2023/12/05 16:25:45;;;;;;;35.30;23.50;;;;;;;-1.06;66.75;101080.94;105679;1257;60562;-76
2023/12/05 16:28:13;;;;;;;35.70;23.70;;;;;;;-1.06;66.76;101076.10;105797;1259;65187;-76
2023/12/05 16:30:41;;;;;;;37.00;24.00;;;;;;;-1.05;66.86;101075.23;105583;1257;60572;-76
2023/12/05 16:33:09;;;;;;;35.70;23.30;;;;;;;-1.04;66.94;101079.20;105295;1262;64760;-75
2023/12/05 16:35:36;;;;;;;33.60;21.80;;;;;;;-1.03;66.91;101080.04;105523;1255;60466;-75
2023/12/05 16:38:05;;;;;;;36.80;23.20;;;;;;;-1.04;66.92;101080.55;105479;1256;60538;-75
2023/12/05 16:40:32;;;;;;;37.80;22.70;;;;;;;-1.05;66.84;101079.55;105597;1257;64948;-76
2023/12/05 16:43:00;;;;;;;35.50;22.30;;;;;;;-1.05;66.93;101079.89;105784;1257;60560;-72
2023/12/05 16:45:27;;;;;;;33.10;21.90;;;;;;;-1.05;66.90;101074.37;105462;1262;65546;-73
2023/12/05 16:47:58;;;;;;;36.60;22.70;;;;;;;-1.04;66.87;101072.79;106376;1256;60534;-71
2023/12/05 16:50:28;;;;;;;40.40;27.90;;;;;;;-1.04;66.88;101072.78;108985;1256;60307;-72
2023/12/05 16:52:56;;;;;;;43.90;28.40;;;;;;;-1.04;66.89;101074.02;108876;1256;66656;-73
2023/12/05 16:55:24;;;;;;;35.50;23.30;;;;;;;-1.03;66.89;101071.56;108949;1256;58965;-73
2023/12/05 16:57:51;;;;;;;38.80;23.30;;;;;;;-1.01;66.88;101071.33;105784;1257;65541;-71
2023/12/05 17:00:19;;;;;;;40.10;23.00;;;;;;;-0.99;66.86;101071.80;105704;1255;60603;-72
2023/12/05 17:02:46;;;;;;;34.20;22.30;;;;;;;-0.97;66.79;101070.55;105742;1257;60620;-72
2023/12/05 17:05:14;;;;;;;33.60;22.20;;;;;;;-0.97;66.81;101071.23;105752;1259;66821;-72
2023/12/05 17:07:42;;;;;;;33.70;22.30;;;;;;;-0.98;66.76;101074.20;105872;1257;60460;-71
2023/12/05 17:10:10;;;;;;;38.10;22.30;;;;;;;-1.01;66.73;101069.42;105747;1256;72869;-73
2023/12/05 17:12:39;;;;;;;30.80;21.20;;;;;;;-1.01;66.73;101062.35;105671;1256;60497;-73
2023/12/05 17:15:08;;;;;;;34.60;23.30;;;;;;;-1.01;66.73;101057.52;105715;1260;60520;-73
2023/12/05 17:17:34;;;;;;;34.40;22.30;;;;;;;-1.01;66.72;101050.59;106094;1257;65144;-71
2023/12/05 17:20:03;;;;;;;35.40;22.00;;;;;;;-1.01;66.73;101041.23;105727;1256;60476;-73
2023/12/05 17:22:31;;;;;;;29.80;20.20;;;;;;;-1.01;66.72;101044.54;105636;1257;66259;-69
2023/12/05 17:24:59;;;;;;;29.40;19.70;;;;;;;-1.01;66.72;101050.08;105726;1256;60435;-72
2023/12/05 17:27:26;;;;;;;29.20;18.30;;;;;;;-1.02;66.70;101044.03;105560;1257;60524;-73
2023/12/05 17:29:53;;;;;;;29.10;19.30;;;;;;;-1.02;66.82;101039.55;105731;1259;66547;-71
2023/12/05 17:32:25;;;;;;;29.80;20.50;;;;;;;-1.02;66.82;101041.11;105525;1262;60432;-72
2023/12/05 17:34:54;;;;;;;32.40;21.20;;;;;;;-1.02;66.78;101038.70;105790;1260;64220;-72
2023/12/05 17:37:22;;;;;;;34.40;21.60;;;;;;;-1.03;66.91;101033.88;105794;1256;60339;-75
2023/12/05 17:39:49;;;;;;;27.60;18.80;;;;;;;-1.03;66.91;101030.41;105494;1257;60397;-72
2023/12/05 17:42:18;;;;;;;36.10;21.90;;;;;;;-1.03;66.95;101030.06;105705;1260;66709;-71
2023/12/05 17:44:50;;;;;;;39.50;22.60;;;;;;;-1.04;67.01;101026.46;105530;1258;60377;-73
2023/12/05 17:47:19;;;;;;;33.90;22.00;;;;;;;-1.05;67.05;101021.48;105455;1257;64194;-72
2023/12/05 17:49:46;;;;;;;34.50;23.20;;;;;;;-1.04;67.15;101022.84;105710;1255;60456;-72
2023/12/05 17:52:14;;;;;;;31.10;19.30;;;;;;;-1.03;67.22;101022.82;105625;1257;60708;-71
2023/12/05 17:54:43;;;;;;;34.00;21.90;;;;;;;-1.03;67.26;101025.06;105778;1259;64007;-73
2023/12/05 17:57:10;;;;;;;33.80;21.70;;;;;;;-1.04;67.29;101024.38;105658;1260;60589;-72
2023/12/05 17:59:38;;;;;;;32.90;21.30;;;;;;;-1.04;67.40;101028.53;105897;1256;64446;-71
2023/12/05 18:02:05;;;;;;;30.50;20.60;;;;;;;-1.03;67.42;101030.42;105509;1256;60470;-68
2023/12/05 18:04:33;;;;;;;29.60;20.30;;;;;;;-1.03;67.44;101029.02;105399;1255;60564;-73
2023/12/05 18:07:01;;;;;;;31.10;20.80;;;;;;;-1.03;67.54;101029.73;105643;1255;66765;-74
2023/12/05 18:09:50;;;;;;;32.90;21.00;;;;;;;-1.03;67.58;101030.40;105803;1257;60571;-73
2023/12/05 18:12:18;;;;;;;30.90;20.20;;;;;;;-1.03;67.59;101034.55;105717;1256;72027;-73
2023/12/05 18:14:47;;;;;;;27.30;18.40;;;;;;;-1.03;67.57;101032.13;105652;1256;60494;-74
2023/12/05 18:17:14;;;;;;;30.40;19.80;;;;;;;-1.02;67.63;101034.36;105604;1256;60569;-71
2023/12/05 18:19:44;;;;;;;26.90;18.70;;;;;;;-1.01;67.67;101035.20;105410;1256;66708;-70
2023/12/05 18:22:13;;;;;;;27.10;17.90;;;;;;;-1.00;67.71;101034.48;105486;1256;60572;-69
2023/12/05 18:24:40;;;;;;;28.10;18.60;;;;;;;-0.98;67.69;101034.80;105433;1257;64857;-71
2023/12/05 18:27:08;;;;;;;28.60;18.80;;;;;;;-0.99;67.71;101041.56;105726;1257;60939;-72
2023/12/05 18:29:35;;;;;;;25.00;18.00;;;;;;;-1.00;67.73;101049.17;105459;1261;60390;-71
2023/12/05 18:32:03;;;;;;;26.50;17.90;;;;;;;-1.00;67.73;101048.84;105533;1261;66811;-72
2023/12/05 18:34:30;;;;;;;27.90;17.80;;;;;;;-1.01;67.75;101043.85;105715;1256;60522;-71
2023/12/05 18:36:57;;;;;;;29.30;18.90;;;;;;;-1.01;67.80;101037.61;105590;1256;65938;-71
2023/12/05 18:39:25;;;;;;;28.60;18.70;;;;;;;-0.99;67.80;101038.27;105747;1257;60470;-73
2023/12/05 18:41:53;;;;;;;28.60;18.90;;;;;;;-0.99;67.78;101043.11;105621;1262;60415;-72
2023/12/05 18:44:20;;;;;;;25.00;17.70;;;;;;;-1.00;67.82;101044.86;105794;1259;67000;-72
2023/12/05 18:46:47;;;;;;;28.60;17.90;;;;;;;-1.02;67.84;101040.24;105542;1261;60463;-71
2023/12/05 18:49:15;;;;;;;29.70;18.40;;;;;;;-1.04;67.83;101035.79;105693;1261;64796;-72
2023/12/05 18:52:00;;;;;;;25.60;17.20;;;;;;;-1.04;67.83;101037.35;105567;1256;60380;-72
2023/12/05 18:54:31;;;;;;;26.10;17.90;;;;;;;-1.05;67.86;101036.86;105579;1262;60628;-72
2023/12/05 18:57:03;;;;;;;22.50;15.50;;;;;;;-1.06;67.89;101031.68;105522;1256;66152;-74
2023/12/05 18:59:30;;;;;;;28.00;18.00;;;;;;;-1.08;67.86;101031.38;105471;1261;60456;-74
2023/12/05 19:01:58;;;;;;;27.10;17.90;;;;;;;-1.08;67.86;101031.05;106223;1257;65564;-74
2023/12/05 19:04:25;;;;;;;24.60;17.80;;;;;;;-1.08;68.00;101033.46;105354;1258;60591;-75
2023/12/05 19:07:02;;;;;;;25.50;18.20;;;;;;;-1.08;67.99;101034.83;105584;1262;60315;-76
2023/12/05 19:09:30;;;;;;;28.20;19.30;;;;;;;-1.07;68.04;101032.04;105377;1256;66049;-74
2023/12/05 19:12:06;;;;;;;28.80;19.50;;;;;;;-1.06;68.00;101030.98;105526;1256;60451;-76
2023/12/05 19:14:59;;;;;;;29.80;19.00;;;;;;;-1.05;68.03;101025.45;105626;1257;63959;-75
2023/12/05 19:17:37;;;;;;;30.90;20.00;;;;;;;-1.04;68.03;101026.30;106263;1260;61249;-73
2023/12/05 19:20:10;;;;;;;28.20;19.30;;;;;;;-1.03;67.98;101025.94;105381;1256;60530;-72
2023/12/05 19:22:40;;;;;;;28.30;20.00;;;;;;;-1.03;67.97;101023.69;105459;1263;65271;-76
2023/12/05 19:25:08;;;;;;;32.40;22.00;;;;;;;-1.03;68.04;101021.10;105611;1261;60364;-74
2023/12/05 19:27:35;;;;;;;35.40;22.30;;;;;;;-1.03;68.06;101018.66;105636;1256;63864;-72
2023/12/05 19:30:03;;;;;;;34.20;23.00;;;;;;;-1.04;68.08;101020.06;105623;1261;61094;-74
2023/12/05 19:32:32;;;;;;;33.10;23.30;;;;;;;-1.05;68.07;101017.84;105405;1262;60463;-72
2023/12/05 19:35:06;;;;;;;31.60;21.10;;;;;;;-1.05;68.11;101020.96;105430;1257;66022;-73
2023/12/05 19:37:38;;;;;;;31.80;21.50;;;;;;;-1.05;68.11;101023.05;105475;1257;60488;-72
2023/12/05 19:40:07;;;;;;;32.80;20.40;;;;;;;-1.07;68.11;101021.33;105318;1262;64362;-75
2023/12/05 19:42:36;;;;;;;34.90;20.90;;;;;;;-1.07;68.23;101021.66;105322;1256;60703;-74
2023/12/05 19:45:04;;;;;;;35.10;21.60;;;;;;;-1.07;68.29;101017.70;105545;1256;60464;-76
2023/12/05 19:47:34;;;;;;;46.20;26.10;;;;;;;-1.08;68.19;101014.09;105719;1262;67410;-74
2023/12/05 19:50:04;;;;;;;42.90;25.70;;;;;;;-1.08;68.22;101012.19;105416;1257;60579;-73
2023/12/05 19:52:31;;;;;;;41.60;26.20;;;;;;;-1.09;68.31;101014.45;105534;1256;65800;-73
2023/12/05 19:54:58;;;;;;;37.10;23.30;;;;;;;-1.09;68.26;101014.98;105392;1262;60421;-73
2023/12/05 19:57:26;;;;;;;36.20;23.70;;;;;;;-1.09;68.31;101011.52;105319;1262;60463;-75
2023/12/05 19:59:53;;;;;;;35.60;22.20;;;;;;;-1.09;68.30;101011.52;105464;1256;66472;-73
2023/12/05 20:02:20;;;;;;;33.10;22.20;;;;;;;-1.08;68.33;101009.09;105655;1257;68548;-74
2023/12/05 20:04:47;;;;;;;31.90;21.10;;;;;;;-1.09;68.31;101012.03;105228;1265;65989;-73
2023/12/05 20:07:15;;;;;;;31.60;20.30;;;;;;;-1.09;68.31;101016.88;105398;1262;61119;-74
2023/12/05 20:09:42;;;;;;;35.60;22.50;;;;;;;-1.09;68.32;101018.95;105408;1256;60547;-75
2023/12/05 20:12:10;;;;;;;37.20;23.10;;;;;;;-1.09;68.31;101018.42;105633;1261;66924;-74
2023/12/05 20:15:09;;;;;;;36.80;23.50;;;;;;;-1.09;68.28;101019.99;105553;1256;60443;-72
2023/12/05 20:17:49;;;;;;;35.50;22.20;;;;;;;-1.09;68.32;101022.23;106789;1256;64726;-74
2023/12/05 20:20:25;;;;;;;31.50;19.90;;;;;;;-1.08;68.31;101023.07;106325;1256;60318;-70
2023/12/05 20:23:23;;;;;;;31.90;20.80;;;;;;;-1.08;68.22;101029.98;105606;1256;60469;-69
2023/12/05 20:25:53;;;;;;;27.10;17.70;;;;;;;-1.09;68.22;101031.57;105187;1263;67478;-70
2023/12/05 20:28:20;;;;;;;26.90;18.10;;;;;;;-1.10;68.24;101031.24;105386;1256;60630;-70
2023/12/05 20:30:49;;;;;;;28.30;18.80;;;;;;;-1.10;68.19;101035.74;105533;1260;74249;-71
2023/12/05 20:33:21;;;;;;;28.40;19.40;;;;;;;-1.11;68.18;101032.66;105234;1256;62514;-69
2023/12/05 20:35:51;;;;;;;28.70;18.80;;;;;;;-1.12;68.20;101034.23;105228;1257;60531;-70
2023/12/05 20:38:18;;;;;;;25.80;17.40;;;;;;;-1.12;68.21;101039.43;105606;1260;63848;-71
2023/12/05 20:40:45;;;;;;;24.90;16.70;;;;;;;-1.12;68.20;101043.21;105296;1257;60573;-70
2023/12/05 20:43:13;;;;;;;26.20;17.30;;;;;;;-1.11;68.24;101049.59;105398;1257;64132;-72
2023/12/05 20:45:43;;;;;;;25.20;17.20;;;;;;;-1.10;68.19;101050.08;105340;1256;60549;-69
2023/12/05 20:48:12;;;;;;;27.90;19.60;;;;;;;-1.10;68.25;101051.63;105429;1256;60571;-70
2023/12/05 20:50:40;;;;;;;27.70;20.20;;;;;;;-1.09;68.18;101048.33;105462;1256;65817;-70
2023/12/05 20:53:08;;;;;;;27.80;19.00;;;;;;;-1.07;68.17;101046.56;105155;1256;60574;-70
2023/12/05 20:55:39;;;;;;;29.00;19.30;;;;;;;-1.06;68.20;101049.83;105352;1256;64154;-69
2023/12/05 20:58:06;;;;;;;29.20;20.00;;;;;;;-1.05;68.23;101053.97;105665;1257;60497;-70
2023/12/05 21:00:33;;;;;;;29.80;19.60;;;;;;;-1.02;68.25;101055.47;105469;1262;60335;-72
2023/12/05 21:03:00;;;;;;;33.90;22.90;;;;;;;-1.01;68.24;101060.79;105706;1262;65142;-68
2023/12/05 21:05:39;;;;;;;31.50;21.30;;;;;;;-1.01;68.21;101061.48;105585;1262;60483;-72